sensor_id;sensor_type;location;lat;lon;timestamp;pressure;altitude;pressure_sealevel;temperature;humidity
48968;BME280;46511;53.148;8.204;2022-08-25T00:01:38;101930.03;;;23.02;54.68
48968;BME280;46511;53.148;8.204;2022-08-25T00:04:10;101926.75;;;22.99;54.76
48968;BME280;46511;53.148;8.204;2022-08-25T00:06:42;101931.28;;;22.89;54.94
48968;BME280;46511;53.148;8.204;2022-08-25T00:09:09;101935.34;;;23.04;54.59
48968;BME280;46511;53.148;8.204;2022-08-25T00:11:36;101936.44;;;23.01;55.04
48968;BME280;46511;53.148;8.204;2022-08-25T00:14:10;101926.44;;;22.92;55.28
48968;BME280;46511;53.148;8.204;2022-08-25T00:16:42;101933.84;;;22.90;55.14
48968;BME280;46511;53.148;8.204;2022-08-25T00:19:15;101922.31;;;22.88;55.13
48968;BME280;46511;53.148;8.204;2022-08-25T00:21:47;101922.41;;;22.77;56.10
48968;BME280;46511;53.148;8.204;2022-08-25T00:24:18;101922.22;;;22.69;56.44
48968;BME280;46511;53.148;8.204;2022-08-25T00:26:51;101921.38;;;22.68;56.01
48968;BME280;46511;53.148;8.204;2022-08-25T00:29:25;101924.75;;;22.61;56.64
48968;BME280;46511;53.148;8.204;2022-08-25T00:31:56;101924.22;;;22.67;56.44
48968;BME280;46511;53.148;8.204;2022-08-25T00:34:29;101923.06;;;22.60;57.16
48968;BME280;46511;53.148;8.204;2022-08-25T00:36:56;101921.88;;;22.52;57.37
48968;BME280;46511;53.148;8.204;2022-08-25T00:39:28;101920.13;;;22.42;57.41
48968;BME280;46511;53.148;8.204;2022-08-25T00:41:55;101918.41;;;22.41;57.34
48968;BME280;46511;53.148;8.204;2022-08-25T00:44:28;101927.38;;;22.32;58.25
48968;BME280;46511;53.148;8.204;2022-08-25T00:47:00;101920.56;;;22.37;58.09
48968;BME280;46511;53.148;8.204;2022-08-25T00:49:36;101923.66;;;22.33;58.49
48968;BME280;46511;53.148;8.204;2022-08-25T00:52:16;101918.66;;;22.28;58.57
48968;BME280;46511;53.148;8.204;2022-08-25T00:54:53;101923.31;;;22.26;58.63
48968;BME280;46511;53.148;8.204;2022-08-25T00:57:26;101930.97;;;22.11;59.12
48968;BME280;46511;53.148;8.204;2022-08-25T00:59:59;101931.69;;;22.13;59.37
48968;BME280;46511;53.148;8.204;2022-08-25T01:02:31;101925.84;;;22.08;59.20
48968;BME280;46511;53.148;8.204;2022-08-25T01:05:02;101930.03;;;22.01;59.78
48968;BME280;46511;53.148;8.204;2022-08-25T01:07:29;101929.97;;;21.91;60.14
48968;BME280;46511;53.148;8.204;2022-08-25T01:09:55;101927.97;;;21.93;60.12
48968;BME280;46511;53.148;8.204;2022-08-25T01:12:26;101938.59;;;21.85;60.67
48968;BME280;46511;53.148;8.204;2022-08-25T01:14:57;101934.66;;;21.89;60.84
48968;BME280;46511;53.148;8.204;2022-08-25T01:20:21;101928.50;;;21.87;60.91
48968;BME280;46511;53.148;8.204;2022-08-25T01:22:48;101934.13;;;21.75;61.31
48968;BME280;46511;53.148;8.204;2022-08-25T01:31:14;101929.94;;;21.50;62.77
48968;BME280;46511;53.148;8.204;2022-08-25T01:33:45;101923.16;;;21.55;62.72
48968;BME280;46511;53.148;8.204;2022-08-25T01:36:21;101929.50;;;21.65;62.23
48968;BME280;46511;53.148;8.204;2022-08-25T01:39:02;101928.44;;;21.57;62.89
48968;BME280;46511;53.148;8.204;2022-08-25T01:41:35;101929.16;;;21.59;62.43
48968;BME280;46511;53.148;8.204;2022-08-25T01:50:25;101939.44;;;21.44;63.75
48968;BME280;46511;53.148;8.204;2022-08-25T01:53:07;101941.50;;;21.41;63.76
48968;BME280;46511;53.148;8.204;2022-08-25T01:55:55;101938.63;;;21.32;64.16
48968;BME280;46511;53.148;8.204;2022-08-25T02:01:43;101950.47;;;20.98;65.96
48968;BME280;46511;53.148;8.204;2022-08-25T02:04:14;101938.91;;;21.07;66.20
48968;BME280;46511;53.148;8.204;2022-08-25T02:06:46;101935.56;;;21.15;65.81
48968;BME280;46511;53.148;8.204;2022-08-25T02:09:17;101934.25;;;20.98;66.85
48968;BME280;46511;53.148;8.204;2022-08-25T02:11:49;101935.75;;;20.91;67.20
48968;BME280;46511;53.148;8.204;2022-08-25T02:17:34;101940.94;;;20.71;68.65
48968;BME280;46511;53.148;8.204;2022-08-25T02:20:09;101941.78;;;20.94;67.77
48968;BME280;46511;53.148;8.204;2022-08-25T02:22:40;101934.91;;;20.79;68.57
48968;BME280;46511;53.148;8.204;2022-08-25T02:25:11;101931.97;;;20.71;68.96
48968;BME280;46511;53.148;8.204;2022-08-25T02:27:42;101931.09;;;20.81;68.74
48968;BME280;46511;53.148;8.204;2022-08-25T02:30:14;101940.69;;;20.63;69.62
48968;BME280;46511;53.148;8.204;2022-08-25T02:32:45;101935.06;;;20.66;69.46
48968;BME280;46511;53.148;8.204;2022-08-25T02:35:17;101930.28;;;20.47;70.49
48968;BME280;46511;53.148;8.204;2022-08-25T02:37:51;101929.19;;;20.50;70.45
48968;BME280;46511;53.148;8.204;2022-08-25T02:40:23;101930.91;;;20.51;70.20
48968;BME280;46511;53.148;8.204;2022-08-25T02:42:54;101937.53;;;20.58;70.13
48968;BME280;46511;53.148;8.204;2022-08-25T02:45:27;101930.63;;;20.54;70.50
48968;BME280;46511;53.148;8.204;2022-08-25T02:47:58;101936.78;;;20.45;70.90
48968;BME280;46511;53.148;8.204;2022-08-25T02:50:30;101934.19;;;20.43;71.02
48968;BME280;46511;53.148;8.204;2022-08-25T02:53:01;101936.63;;;20.35;71.76
48968;BME280;46511;53.148;8.204;2022-08-25T02:55:32;101937.38;;;20.37;71.67
48968;BME280;46511;53.148;8.204;2022-08-25T02:58:04;101947.28;;;20.25;72.59
48968;BME280;46511;53.148;8.204;2022-08-25T03:00:35;101941.53;;;20.30;72.28
48968;BME280;46511;53.148;8.204;2022-08-25T03:03:07;101942.00;;;20.13;73.00
48968;BME280;46511;53.148;8.204;2022-08-25T03:05:38;101943.97;;;20.11;73.70
48968;BME280;46511;53.148;8.204;2022-08-25T03:08:05;101934.16;;;20.21;73.06
48968;BME280;46511;53.148;8.204;2022-08-25T03:10:37;101945.09;;;20.31;72.66
48968;BME280;46511;53.148;8.204;2022-08-25T03:13:08;101934.03;;;20.11;73.70
48968;BME280;46511;53.148;8.204;2022-08-25T03:15:39;101930.34;;;20.01;74.01
48968;BME280;46511;53.148;8.204;2022-08-25T03:18:12;101935.25;;;20.07;73.94
48968;BME280;46511;53.148;8.204;2022-08-25T03:20:43;101935.03;;;20.21;73.28
48968;BME280;46511;53.148;8.204;2022-08-25T03:23:16;101928.66;;;20.11;73.78
48968;BME280;46511;53.148;8.204;2022-08-25T03:25:47;101934.03;;;20.11;74.25
48968;BME280;46511;53.148;8.204;2022-08-25T03:28:37;101926.94;;;20.10;74.50
48968;BME280;46511;53.148;8.204;2022-08-25T03:31:04;101928.97;;;19.95;75.08
48968;BME280;46511;53.148;8.204;2022-08-25T03:33:35;101927.88;;;19.98;74.93
48968;BME280;46511;53.148;8.204;2022-08-25T03:36:08;101923.13;;;20.02;74.89
48968;BME280;46511;53.148;8.204;2022-08-25T03:38:42;101919.16;;;19.94;75.58
48968;BME280;46511;53.148;8.204;2022-08-25T03:41:21;101920.41;;;19.90;76.02
48968;BME280;46511;53.148;8.204;2022-08-25T03:43:53;101915.75;;;20.04;75.34
48968;BME280;46511;53.148;8.204;2022-08-25T03:46:21;101920.78;;;20.08;75.20
48968;BME280;46511;53.148;8.204;2022-08-25T03:48:53;101907.25;;;19.86;76.46
48968;BME280;46511;53.148;8.204;2022-08-25T03:51:29;101912.41;;;19.89;76.45
48968;BME280;46511;53.148;8.204;2022-08-25T03:54:01;101917.78;;;19.89;76.37
48968;BME280;46511;53.148;8.204;2022-08-25T03:56:33;101915.81;;;19.80;77.30
48968;BME280;46511;53.148;8.204;2022-08-25T03:59:04;101914.38;;;19.87;76.87
48968;BME280;46511;53.148;8.204;2022-08-25T04:01:39;101909.66;;;19.66;78.58
48968;BME280;46511;53.148;8.204;2022-08-25T04:04:11;101906.13;;;19.66;78.72
48968;BME280;46511;53.148;8.204;2022-08-25T04:06:43;101914.59;;;19.73;78.03
48968;BME280;46511;53.148;8.204;2022-08-25T04:09:15;101909.41;;;19.69;78.72
48968;BME280;46511;53.148;8.204;2022-08-25T04:11:46;101908.44;;;19.71;79.18
48968;BME280;46511;53.148;8.204;2022-08-25T04:14:17;101909.06;;;19.63;79.34
48968;BME280;46511;53.148;8.204;2022-08-25T04:16:49;101915.19;;;19.65;79.65
48968;BME280;46511;53.148;8.204;2022-08-25T04:19:20;101911.56;;;19.53;79.96
48968;BME280;46511;53.148;8.204;2022-08-25T04:21:52;101907.44;;;19.60;80.18
48968;BME280;46511;53.148;8.204;2022-08-25T04:24:23;101905.72;;;19.59;80.49
48968;BME280;46511;53.148;8.204;2022-08-25T04:26:55;101902.28;;;19.57;80.57
48968;BME280;46511;53.148;8.204;2022-08-25T04:29:27;101900.72;;;19.66;80.49
48968;BME280;46511;53.148;8.204;2022-08-25T04:31:58;101896.91;;;19.57;81.28
48968;BME280;46511;53.148;8.204;2022-08-25T04:34:29;101891.03;;;19.63;81.43
48968;BME280;46511;53.148;8.204;2022-08-25T04:37:02;101891.31;;;19.48;82.32
48968;BME280;46511;53.148;8.204;2022-08-25T04:39:35;101889.25;;;19.51;82.54
48968;BME280;46511;53.148;8.204;2022-08-25T04:42:07;101892.50;;;19.67;81.67
48968;BME280;46511;53.148;8.204;2022-08-25T04:44:38;101891.19;;;19.73;81.61
48968;BME280;46511;53.148;8.204;2022-08-25T04:47:09;101888.16;;;19.54;83.00
48968;BME280;46511;53.148;8.204;2022-08-25T04:49:41;101888.50;;;19.73;82.05
48968;BME280;46511;53.148;8.204;2022-08-25T04:52:12;101891.94;;;19.97;80.94
48968;BME280;46511;53.148;8.204;2022-08-25T04:54:43;101893.50;;;19.78;81.99
48968;BME280;46511;53.148;8.204;2022-08-25T04:57:10;101899.88;;;19.77;82.60
48968;BME280;46511;53.148;8.204;2022-08-25T04:59:41;101898.28;;;19.74;82.64
48968;BME280;46511;53.148;8.204;2022-08-25T05:02:12;101904.53;;;19.75;82.81
48968;BME280;46511;53.148;8.204;2022-08-25T05:04:44;101910.09;;;19.84;82.61
48968;BME280;46511;53.148;8.204;2022-08-25T05:07:15;101906.00;;;19.79;83.42
48968;BME280;46511;53.148;8.204;2022-08-25T05:09:46;101896.91;;;19.68;84.83
48968;BME280;46511;53.148;8.204;2022-08-25T05:12:17;101894.03;;;19.83;83.90
48968;BME280;46511;53.148;8.204;2022-08-25T05:14:52;101898.56;;;19.82;84.43
48968;BME280;46511;53.148;8.204;2022-08-25T05:17:24;101900.28;;;19.94;83.76
48968;BME280;46511;53.148;8.204;2022-08-25T05:19:56;101902.84;;;19.85;84.36
48968;BME280;46511;53.148;8.204;2022-08-25T05:22:27;101896.00;;;19.81;85.13
48968;BME280;46511;53.148;8.204;2022-08-25T05:24:54;101896.13;;;20.02;84.15
48968;BME280;46511;53.148;8.204;2022-08-25T05:27:25;101892.06;;;19.96;84.80
48968;BME280;46511;53.148;8.204;2022-08-25T05:29:56;101888.19;;;20.00;84.76
48968;BME280;46511;53.148;8.204;2022-08-25T05:32:27;101887.41;;;19.98;86.19
48968;BME280;46511;53.148;8.204;2022-08-25T05:34:59;101887.19;;;20.01;85.75
48968;BME280;46511;53.148;8.204;2022-08-25T05:37:30;101887.31;;;20.33;84.40
48968;BME280;46511;53.148;8.204;2022-08-25T05:40:02;101889.91;;;20.57;82.84
48968;BME280;46511;53.148;8.204;2022-08-25T05:42:33;101880.88;;;21.33;78.44
48968;BME280;46511;53.148;8.204;2022-08-25T05:45:05;101881.16;;;21.72;75.91
48968;BME280;46511;53.148;8.204;2022-08-25T05:47:37;101878.81;;;21.67;76.79
48968;BME280;46511;53.148;8.204;2022-08-25T05:50:08;101884.94;;;22.42;72.63
48968;BME280;46511;53.148;8.204;2022-08-25T05:52:40;101878.13;;;23.07;69.20
48968;BME280;46511;53.148;8.204;2022-08-25T05:55:11;101881.25;;;24.27;63.52
48968;BME280;46511;53.148;8.204;2022-08-25T05:57:42;101890.34;;;24.26;63.30
48968;BME280;46511;53.148;8.204;2022-08-25T06:00:13;101891.50;;;24.88;61.50
48968;BME280;46511;53.148;8.204;2022-08-25T06:02:45;101882.31;;;24.43;62.67
48968;BME280;46511;53.148;8.204;2022-08-25T06:05:20;101888.69;;;22.50;73.43
48968;BME280;46511;53.148;8.204;2022-08-25T06:07:51;101890.22;;;24.37;64.67
48968;BME280;46511;53.148;8.204;2022-08-25T06:10:22;101884.25;;;26.37;57.48
48968;BME280;46511;53.148;8.204;2022-08-25T06:12:49;101875.59;;;26.50;55.82
48968;BME280;46511;53.148;8.204;2022-08-25T06:15:21;101882.16;;;26.73;54.84
48968;BME280;46511;53.148;8.204;2022-08-25T06:17:52;101878.34;;;27.98;50.68
48968;BME280;46511;53.148;8.204;2022-08-25T06:20:24;101882.22;;;28.59;49.33
48968;BME280;46511;53.148;8.204;2022-08-25T06:22:57;101878.31;;;28.93;47.57
48968;BME280;46511;53.148;8.204;2022-08-25T06:25:28;101883.66;;;28.47;48.53
48968;BME280;46511;53.148;8.204;2022-08-25T06:28:02;101874.59;;;27.83;50.98
48968;BME280;46511;53.148;8.204;2022-08-25T06:30:33;101878.66;;;28.90;48.49
48968;BME280;46511;53.148;8.204;2022-08-25T06:33:05;101875.25;;;27.93;50.39
48968;BME280;46511;53.148;8.204;2022-08-25T06:35:36;101869.88;;;28.32;50.11
48968;BME280;46511;53.148;8.204;2022-08-25T06:38:10;101870.72;;;28.33;49.95
48968;BME280;46511;53.148;8.204;2022-08-25T06:40:37;101872.75;;;29.84;46.25
48968;BME280;46511;53.148;8.204;2022-08-25T06:43:08;101873.78;;;29.46;46.54
48968;BME280;46511;53.148;8.204;2022-08-25T06:45:40;101865.44;;;32.76;40.20
48968;BME280;46511;53.148;8.204;2022-08-25T06:48:14;101873.72;;;30.80;43.23
48968;BME280;46511;53.148;8.204;2022-08-25T06:50:45;101869.19;;;33.30;38.84
48968;BME280;46511;53.148;8.204;2022-08-25T06:53:17;101864.59;;;32.76;38.19
48968;BME280;46511;53.148;8.204;2022-08-25T06:55:54;101862.59;;;31.52;41.38
48968;BME280;46511;53.148;8.204;2022-08-25T06:58:25;101862.69;;;32.70;38.60
48968;BME280;46511;53.148;8.204;2022-08-25T07:01:05;101868.72;;;32.45;38.85
48968;BME280;46511;53.148;8.204;2022-08-25T07:03:37;101867.75;;;33.40;37.03
48968;BME280;46511;53.148;8.204;2022-08-25T07:06:09;101859.91;;;34.86;34.57
48968;BME280;46511;53.148;8.204;2022-08-25T07:08:40;101855.13;;;32.85;37.79
48968;BME280;46511;53.148;8.204;2022-08-25T07:11:11;101857.84;;;32.72;38.67
48968;BME280;46511;53.148;8.204;2022-08-25T07:13:44;101855.84;;;31.55;41.27
48968;BME280;46511;53.148;8.204;2022-08-25T07:16:16;101850.19;;;32.67;38.76
48968;BME280;46511;53.148;8.204;2022-08-25T07:18:48;101849.94;;;33.43;37.63
48968;BME280;46511;53.148;8.204;2022-08-25T07:21:19;101850.75;;;34.03;36.58
48968;BME280;46511;53.148;8.204;2022-08-25T07:23:45;101859.19;;;32.95;38.34
48968;BME280;46511;53.148;8.204;2022-08-25T07:26:19;101853.69;;;35.04;35.04
48968;BME280;46511;53.148;8.204;2022-08-25T07:28:50;101847.44;;;35.47;33.96
48968;BME280;46511;53.148;8.204;2022-08-25T07:31:22;101845.66;;;33.87;36.83
48968;BME280;46511;53.148;8.204;2022-08-25T07:33:53;101851.59;;;33.97;36.72
48968;BME280;46511;53.148;8.204;2022-08-25T07:36:38;101855.22;;;33.77;37.01
48968;BME280;46511;53.148;8.204;2022-08-25T07:39:09;101847.09;;;34.16;36.07
48968;BME280;46511;53.148;8.204;2022-08-25T07:41:41;101852.00;;;31.49;42.38
48968;BME280;46511;53.148;8.204;2022-08-25T07:44:08;101852.34;;;32.72;40.06
48968;BME280;46511;53.148;8.204;2022-08-25T07:46:40;101850.28;;;35.59;35.45
48968;BME280;46511;53.148;8.204;2022-08-25T07:49:12;101854.75;;;34.65;36.05
48968;BME280;46511;53.148;8.204;2022-08-25T07:51:43;101856.28;;;33.57;37.28
48968;BME280;46511;53.148;8.204;2022-08-25T07:54:15;101867.06;;;33.71;38.34
48968;BME280;46511;53.148;8.204;2022-08-25T07:56:41;101863.78;;;31.43;42.92
48968;BME280;46511;53.148;8.204;2022-08-25T07:59:13;101858.75;;;31.47;43.51
48968;BME280;46511;53.148;8.204;2022-08-25T08:01:44;101859.41;;;34.00;38.44
48968;BME280;46511;53.148;8.204;2022-08-25T08:04:16;101852.84;;;34.07;37.21
48968;BME280;46511;53.148;8.204;2022-08-25T08:06:48;101859.56;;;36.63;33.83
48968;BME280;46511;53.148;8.204;2022-08-25T08:09:19;101862.63;;;37.03;32.44
48968;BME280;46511;53.148;8.204;2022-08-25T08:11:50;101865.00;;;33.47;37.76
48968;BME280;46511;53.148;8.204;2022-08-25T08:14:22;101856.63;;;35.09;36.34
48968;BME280;46511;53.148;8.204;2022-08-25T08:16:53;101856.69;;;33.73;37.59
48968;BME280;46511;53.148;8.204;2022-08-25T08:19:25;101853.22;;;34.11;36.95
48968;BME280;46511;53.148;8.204;2022-08-25T08:21:56;101846.38;;;35.16;35.10
48968;BME280;46511;53.148;8.204;2022-08-25T08:24:28;101855.91;;;36.32;33.90
48968;BME280;46511;53.148;8.204;2022-08-25T08:26:59;101855.00;;;36.38;32.70
48968;BME280;46511;53.148;8.204;2022-08-25T08:29:31;101855.63;;;36.22;32.78
48968;BME280;46511;53.148;8.204;2022-08-25T08:32:03;101845.81;;;35.83;32.91
48968;BME280;46511;53.148;8.204;2022-08-25T08:34:34;101838.88;;;36.35;32.59
48968;BME280;46511;53.148;8.204;2022-08-25T08:37:06;101846.81;;;37.33;32.60
48968;BME280;46511;53.148;8.204;2022-08-25T08:39:32;101841.31;;;36.43;32.13
48968;BME280;46511;53.148;8.204;2022-08-25T08:42:48;101835.69;;;37.22;30.21
48968;BME280;46511;53.148;8.204;2022-08-25T08:47:54;101830.88;;;38.63;28.06
48968;BME280;46511;53.148;8.204;2022-08-25T08:50:31;101839.25;;;37.76;29.62
48968;BME280;46511;53.148;8.204;2022-08-25T08:53:07;101827.50;;;38.09;30.84
48968;BME280;46511;53.148;8.204;2022-08-25T08:55:40;101825.66;;;38.38;28.47
48968;BME280;46511;53.148;8.204;2022-08-25T08:58:17;101825.97;;;38.53;27.90
48968;BME280;46511;53.148;8.204;2022-08-25T09:00:51;101828.09;;;40.14;26.96
48968;BME280;46511;53.148;8.204;2022-08-25T09:05:59;101810.94;;;40.71;25.36
48968;BME280;46511;53.148;8.204;2022-08-25T09:08:32;101816.09;;;40.35;25.94
48968;BME280;46511;53.148;8.204;2022-08-25T09:13:50;101811.72;;;37.15;29.54
48968;BME280;46511;53.148;8.204;2022-08-25T09:24:54;101814.53;;;38.38;27.85
48968;BME280;46511;53.148;8.204;2022-08-25T09:27:31;101810.28;;;37.71;28.91
48968;BME280;46511;53.148;8.204;2022-08-25T09:30:07;101805.28;;;39.06;26.97
48968;BME280;46511;53.148;8.204;2022-08-25T09:32:40;101800.88;;;38.48;27.98
48968;BME280;46511;53.148;8.204;2022-08-25T09:35:16;101800.19;;;39.70;26.81
48968;BME280;46511;53.148;8.204;2022-08-25T09:40:21;101801.69;;;39.05;26.53
48968;BME280;46511;53.148;8.204;2022-08-25T09:42:55;101792.50;;;39.05;26.87
48968;BME280;46511;53.148;8.204;2022-08-25T09:45:30;101794.66;;;37.65;28.67
48968;BME280;46511;53.148;8.204;2022-08-25T09:47:57;101780.63;;;38.64;26.91
48968;BME280;46511;53.148;8.204;2022-08-25T09:50:29;101782.63;;;38.52;27.30
48968;BME280;46511;53.148;8.204;2022-08-25T09:53:12;101777.38;;;39.68;25.97
48968;BME280;46511;53.148;8.204;2022-08-25T09:55:45;101774.84;;;41.13;24.74
48968;BME280;46511;53.148;8.204;2022-08-25T09:58:20;101767.66;;;40.58;24.49
48968;BME280;46511;53.148;8.204;2022-08-25T10:01:02;101761.03;;;39.93;25.21
48968;BME280;46511;53.148;8.204;2022-08-25T10:03:33;101748.03;;;41.44;23.54
48968;BME280;46511;53.148;8.204;2022-08-25T10:06:10;101746.84;;;40.66;23.89
48968;BME280;46511;53.148;8.204;2022-08-25T10:11:28;101735.91;;;39.88;25.28
48968;BME280;46511;53.148;8.204;2022-08-25T10:14:20;101733.63;;;39.08;25.82
48968;BME280;46511;53.148;8.204;2022-08-25T10:19:44;101714.94;;;41.21;23.19
48968;BME280;46511;53.148;8.204;2022-08-25T10:22:26;101721.50;;;40.99;23.64
48968;BME280;46511;53.148;8.204;2022-08-25T10:25:05;101725.72;;;40.43;23.53
48968;BME280;46511;53.148;8.204;2022-08-25T10:33:05;101708.94;;;41.39;22.22
48968;BME280;46511;53.148;8.204;2022-08-25T10:40:51;101706.13;;;40.65;23.26
48968;BME280;46511;53.148;8.204;2022-08-25T10:43:33;101704.91;;;42.96;20.61
48968;BME280;46511;53.148;8.204;2022-08-25T10:46:09;101700.31;;;40.39;23.83
48968;BME280;46511;53.148;8.204;2022-08-25T10:51:37;101682.81;;;42.99;21.29
48968;BME280;46511;53.148;8.204;2022-08-25T10:54:08;101676.00;;;40.94;23.52
48968;BME280;46511;53.148;8.204;2022-08-25T10:56:53;101681.97;;;41.60;22.27
48968;BME280;46511;53.148;8.204;2022-08-25T10:59:29;101672.63;;;41.97;21.63
48968;BME280;46511;53.148;8.204;2022-08-25T11:05:01;101658.47;;;41.41;21.83
48968;BME280;46511;53.148;8.204;2022-08-25T11:07:36;101657.38;;;41.47;21.94
48968;BME280;46511;53.148;8.204;2022-08-25T11:10:10;101656.28;;;39.82;23.25
48968;BME280;46511;53.148;8.204;2022-08-25T11:12:48;101649.66;;;40.10;22.83
48968;BME280;46511;53.148;8.204;2022-08-25T11:15:22;101636.69;;;42.26;20.97
48968;BME280;46511;53.148;8.204;2022-08-25T11:18:06;101643.72;;;42.59;21.53
48968;BME280;46511;53.148;8.204;2022-08-25T11:20:41;101657.19;;;38.55;24.38
48968;BME280;46511;53.148;8.204;2022-08-25T11:23:15;101640.25;;;39.67;23.61
48968;BME280;46511;53.148;8.204;2022-08-25T11:25:52;101633.25;;;41.73;21.20
48968;BME280;46511;53.148;8.204;2022-08-25T11:28:31;101633.25;;;43.20;19.97
48968;BME280;46511;53.148;8.204;2022-08-25T11:31:05;101628.13;;;41.59;21.81
48968;BME280;46511;53.148;8.204;2022-08-25T11:33:41;101627.38;;;40.37;22.54
48968;BME280;46511;53.148;8.204;2022-08-25T11:36:23;101628.72;;;41.61;22.32
48968;BME280;46511;53.148;8.204;2022-08-25T11:39:06;101630.25;;;43.76;19.20
48968;BME280;46511;53.148;8.204;2022-08-25T11:41:46;101629.84;;;40.07;23.02
48968;BME280;46511;53.148;8.204;2022-08-25T11:50:23;101610.41;;;37.33;25.84
48968;BME280;46511;53.148;8.204;2022-08-25T11:52:55;101618.47;;;38.65;24.49
48968;BME280;46511;53.148;8.204;2022-08-25T11:55:31;101617.69;;;40.18;21.79
48968;BME280;46511;53.148;8.204;2022-08-25T11:58:48;101609.06;;;41.31;21.56
48968;BME280;46511;53.148;8.204;2022-08-25T12:07:14;101599.84;;;40.09;23.09
48968;BME280;46511;53.148;8.204;2022-08-25T12:14:54;101602.22;;;41.01;21.47
48968;BME280;46511;53.148;8.204;2022-08-25T12:17:26;101600.03;;;41.08;21.33
48968;BME280;46511;53.148;8.204;2022-08-25T12:20:07;101603.59;;;39.10;23.01
48968;BME280;46511;53.148;8.204;2022-08-25T12:22:39;101595.09;;;37.42;25.45
48968;BME280;46511;53.148;8.204;2022-08-25T12:32:56;101588.38;;;40.37;22.47
48968;BME280;46511;53.148;8.204;2022-08-25T12:36:24;101580.44;;;40.19;22.73
48968;BME280;46511;53.148;8.204;2022-08-25T12:43:31;101586.69;;;37.65;25.48
48968;BME280;46511;53.148;8.204;2022-08-25T12:49:00;101580.53;;;38.88;24.28
48968;BME280;46511;53.148;8.204;2022-08-25T12:56:44;101569.56;;;39.41;22.27
48968;BME280;46511;53.148;8.204;2022-08-25T12:59:36;101568.84;;;37.73;24.77
48968;BME280;46511;53.148;8.204;2022-08-25T13:07:31;101563.53;;;39.72;22.64
48968;BME280;46511;53.148;8.204;2022-08-25T13:12:40;101562.34;;;37.39;25.08
48968;BME280;46511;53.148;8.204;2022-08-25T13:15:13;101558.53;;;37.16;25.97
48968;BME280;46511;53.148;8.204;2022-08-25T13:17:45;101565.97;;;39.19;24.07
48968;BME280;46511;53.148;8.204;2022-08-25T13:20:24;101553.84;;;37.86;25.13
48968;BME280;46511;53.148;8.204;2022-08-25T13:22:58;101560.28;;;35.27;28.95
48968;BME280;46511;53.148;8.204;2022-08-25T13:25:29;101544.09;;;37.71;26.44
48968;BME280;46511;53.148;8.204;2022-08-25T13:28:03;101546.91;;;35.72;28.21
48968;BME280;46511;53.148;8.204;2022-08-25T13:30:36;101541.63;;;37.30;26.39
48968;BME280;46511;53.148;8.204;2022-08-25T13:33:19;101533.78;;;37.27;26.15
48968;BME280;46511;53.148;8.204;2022-08-25T13:35:52;101549.81;;;34.74;29.08
48968;BME280;46511;53.148;8.204;2022-08-25T13:38:45;101537.88;;;35.54;27.81
48968;BME280;46511;53.148;8.204;2022-08-25T13:41:18;101535.41;;;35.45;28.49
48968;BME280;46511;53.148;8.204;2022-08-25T13:43:50;101531.25;;;34.13;30.60
48968;BME280;46511;53.148;8.204;2022-08-25T13:46:22;101533.09;;;35.42;29.53
48968;BME280;46511;53.148;8.204;2022-08-25T13:48:48;101525.00;;;37.58;26.06
48968;BME280;46511;53.148;8.204;2022-08-25T13:51:24;101520.78;;;37.27;25.81
48968;BME280;46511;53.148;8.204;2022-08-25T13:54:00;101513.72;;;39.21;24.08
48968;BME280;46511;53.148;8.204;2022-08-25T13:56:35;101503.38;;;40.67;22.52
48968;BME280;46511;53.148;8.204;2022-08-25T13:59:24;101509.31;;;40.38;22.39
48968;BME280;46511;53.148;8.204;2022-08-25T14:01:56;101505.50;;;37.25;26.05
48968;BME280;46511;53.148;8.204;2022-08-25T14:07:06;101508.38;;;38.20;24.80
48968;BME280;46511;53.148;8.204;2022-08-25T14:09:40;101502.94;;;36.83;26.58
48968;BME280;46511;53.148;8.204;2022-08-25T14:12:06;101493.84;;;38.85;24.97
48968;BME280;46511;53.148;8.204;2022-08-25T14:14:38;101501.06;;;38.87;24.52
48968;BME280;46511;53.148;8.204;2022-08-25T14:17:09;101485.75;;;38.12;25.26
48968;BME280;46511;53.148;8.204;2022-08-25T14:19:44;101495.19;;;35.31;28.90
48968;BME280;46511;53.148;8.204;2022-08-25T14:22:15;101502.00;;;34.12;30.67
48968;BME280;46511;53.148;8.204;2022-08-25T14:24:47;101503.88;;;34.61;30.53
48968;BME280;46511;53.148;8.204;2022-08-25T14:27:18;101493.09;;;35.63;29.63
48968;BME280;46511;53.148;8.204;2022-08-25T14:29:50;101486.81;;;36.92;28.24
48968;BME280;46511;53.148;8.204;2022-08-25T14:32:21;101483.22;;;37.77;27.56
48968;BME280;46511;53.148;8.204;2022-08-25T14:34:52;101480.81;;;38.31;25.27
48968;BME280;46511;53.148;8.204;2022-08-25T14:37:23;101479.59;;;34.02;30.44
48968;BME280;46511;53.148;8.204;2022-08-25T14:39:55;101491.34;;;33.59;31.47
48968;BME280;46511;53.148;8.204;2022-08-25T14:42:28;101482.34;;;32.74;33.34
48968;BME280;46511;53.148;8.204;2022-08-25T14:44:59;101468.03;;;34.98;29.92
48968;BME280;46511;53.148;8.204;2022-08-25T14:47:30;101471.19;;;36.27;27.70
48968;BME280;46511;53.148;8.204;2022-08-25T14:50:02;101460.91;;;37.71;25.88
48968;BME280;46511;53.148;8.204;2022-08-25T14:52:33;101461.88;;;37.32;26.20
48968;BME280;46511;53.148;8.204;2022-08-25T14:55:05;101456.16;;;36.58;27.38
48968;BME280;46511;53.148;8.204;2022-08-25T14:57:37;101450.09;;;36.84;27.00
48968;BME280;46511;53.148;8.204;2022-08-25T15:00:08;101455.81;;;35.66;29.29
48968;BME280;46511;53.148;8.204;2022-08-25T15:02:38;101449.00;;;35.38;30.22
48968;BME280;46511;53.148;8.204;2022-08-25T15:05:11;101448.06;;;33.91;31.90
48968;BME280;46511;53.148;8.204;2022-08-25T15:07:38;101449.22;;;34.70;30.94
48968;BME280;46511;53.148;8.204;2022-08-25T15:10:28;101454.88;;;34.75;30.81
48968;BME280;46511;53.148;8.204;2022-08-25T15:12:59;101449.47;;;34.25;31.14